Time;durP1;ratioP1;P1;durP2;ratioP2;P2;SDS_P1;SDS_P2;PMS_P1;PMS_P2;Temp;Humidity;BMP_temperature;BMP_pressure;BME280_temperature;BME280_humidity;BME280_pressure;Samples;Min_cycle;Max_cycle;Signal;HPM_P1;HPM_P2
2022/01/09 00:02:07;;;;;;;72.43;21.25;;;;;;;7.08;92.33;99453.13;5088509;28;20028;-20
2022/01/09 00:04:32;;;;;;;65.25;21.80;;;;;;;7.30;90.79;99440.38;5088584;28;20021;-21
2022/01/09 00:06:58;;;;;;;73.63;19.27;;;;;;;7.22;90.65;99444.09;5088252;28;20081;-20
2022/01/09 00:09:23;;;;;;;86.47;19.63;;;;;;;7.18;90.29;99442.88;5088573;28;20546;-20
2022/01/09 00:11:48;;;;;;;88.03;23.55;;;;;;;7.08;91.29;99442.53;5070561;28;20048;-20
2022/01/09 00:14:14;;;;;;;74.90;21.35;;;;;;;7.23;91.35;99440.44;5088334;28;20028;-20
2022/01/09 00:16:39;;;;;;;79.70;21.45;;;;;;;7.41;90.29;99444.19;5088365;28;20797;-20
2022/01/09 00:19:05;;;;;;;71.55;20.23;;;;;;;7.32;89.99;99448.13;5087933;28;20184;-20
2022/01/09 00:21:30;;;;;;;73.28;19.30;;;;;;;7.20;90.03;99424.13;5088387;28;20040;-21
2022/01/09 00:23:56;;;;;;;78.38;21.05;;;;;;;7.04;90.87;99441.31;5069870;28;20028;-20
2022/01/09 00:26:21;;;;;;;87.55;21.98;;;;;;;7.07;91.78;99435.63;5088272;28;20391;-20
2022/01/09 00:28:47;;;;;;;77.68;20.80;;;;;;;6.86;91.85;99420.78;5088236;28;20115;-21
2022/01/09 00:31:12;;;;;;;111.15;23.10;;;;;;;7.23;90.71;99431.63;5087838;28;20476;-20
2022/01/09 00:33:38;;;;;;;72.15;21.45;;;;;;;7.17;90.57;99430.66;5087753;28;20400;-20
2022/01/09 00:36:03;;;;;;;68.68;19.77;;;;;;;7.17;91.07;99429.81;5088110;28;20039;-20
2022/01/09 00:38:29;;;;;;;74.93;20.70;;;;;;;7.18;90.83;99432.28;5088048;28;20403;-20
2022/01/09 00:40:55;;;;;;;77.95;21.20;;;;;;;7.08;91.14;99431.91;5088098;28;20028;-20
2022/01/09 00:43:20;;;;;;;83.07;20.45;;;;;;;6.96;92.18;99433.59;5087643;28;20031;-20
2022/01/09 00:45:45;;;;;;;74.43;20.25;;;;;;;7.04;91.40;99436.03;5053170;28;20044;-20
2022/01/09 00:48:12;;;;;;;67.10;17.95;;;;;;;6.83;91.69;99430.00;5088255;28;20064;-22
2022/01/09 00:50:40;;;;;;;69.07;19.27;;;;;;;6.47;94.08;99421.75;5070086;28;20020;-21
2022/01/09 00:53:06;;;;;;;64.78;21.70;;;;;;;6.46;94.19;99406.88;5087843;28;20036;-20
2022/01/09 00:55:31;;;;;;;71.28;20.08;;;;;;;6.38;93.70;99400.78;5087817;28;20487;-20
2022/01/09 00:57:57;;;;;;;75.20;20.83;;;;;;;6.61;94.15;99431.28;5069561;28;20116;-20
2022/01/09 01:00:22;;;;;;;105.75;23.20;;;;;;;6.93;92.72;99423.44;5087570;28;20404;-22
2022/01/09 01:02:48;;;;;;;114.80;22.67;;;;;;;6.72;92.96;99420.06;5087917;28;20089;-21
2022/01/09 01:05:13;;;;;;;92.90;21.65;;;;;;;6.65;93.00;99427.19;5087625;28;20024;-20
2022/01/09 01:07:39;;;;;;;79.90;21.35;;;;;;;6.20;94.61;99403.28;5087717;28;20032;-20
2022/01/09 01:10:04;;;;;;;89.65;22.52;;;;;;;6.27;95.35;99404.06;5087556;28;20506;-20
2022/01/09 01:12:30;;;;;;;89.60;22.17;;;;;;;6.44;94.82;99412.41;5069271;28;20031;-20
2022/01/09 01:14:56;;;;;;;81.20;24.08;;;;;;;6.71;93.97;99421.06;5069463;28;20503;-21
2022/01/09 01:17:22;;;;;;;89.72;21.98;;;;;;;7.03;92.44;99419.31;5087348;28;20040;-20
2022/01/09 01:19:47;;;;;;;104.57;25.48;;;;;;;6.95;91.60;99405.50;5087341;28;20079;-21
2022/01/09 01:22:14;;;;;;;88.72;23.48;;;;;;;7.08;91.22;99416.00;5069054;28;20055;-20
2022/01/09 01:24:39;;;;;;;103.25;25.90;;;;;;;7.07;89.93;99409.09;5069285;28;20066;-20
2022/01/09 01:27:05;;;;;;;97.25;25.73;;;;;;;6.95;91.68;99421.41;5087384;28;20035;-20
2022/01/09 01:29:30;;;;;;;96.35;25.77;;;;;;;6.95;91.35;99416.09;5087560;28;20153;-20
2022/01/09 01:31:56;;;;;;;94.45;24.77;;;;;;;6.85;91.22;99400.63;5087303;28;20028;-21
2022/01/09 01:34:21;;;;;;;91.50;23.55;;;;;;;6.63;92.69;99392.16;5087521;28;20032;-20
2022/01/09 01:36:47;;;;;;;79.03;22.13;;;;;;;6.97;91.44;99395.50;5087740;28;20372;-21
2022/01/09 01:39:12;;;;;;;82.85;21.33;;;;;;;7.04;91.32;99398.91;5089983;28;20089;-22
2022/01/09 01:41:38;;;;;;;78.85;22.02;;;;;;;6.81;91.32;99389.63;5091437;28;20036;-21
2022/01/09 01:44:03;;;;;;;69.22;21.25;;;;;;;6.77;91.55;99393.72;5091035;28;20412;-20
2022/01/09 01:46:29;;;;;;;77.55;23.73;;;;;;;6.88;91.34;99396.75;5056309;28;20028;-20
2022/01/09 01:48:54;;;;;;;79.22;21.65;;;;;;;7.01;91.03;99389.53;5091186;28;20031;-20
2022/01/09 01:51:20;;;;;;;74.53;22.17;;;;;;;6.77;91.44;99396.38;5072994;28;20035;-20
2022/01/09 01:53:46;;;;;;;83.65;22.67;;;;;;;6.77;91.33;99383.13;5091060;28;20023;-20
2022/01/09 01:56:19;;;;;;;70.93;22.30;;;;;;;6.65;91.97;99368.91;5091071;28;20035;-20
2022/01/09 01:58:44;;;;;;;71.50;23.80;;;;;;;6.73;92.21;99381.13;5090923;28;20032;-20
2022/01/09 02:01:10;;;;;;;78.18;23.33;;;;;;;6.78;91.81;99378.63;5090774;28;20036;-20
2022/01/09 02:03:35;;;;;;;79.70;24.20;;;;;;;6.85;91.60;99374.13;5090780;28;20055;-20
2022/01/09 02:06:01;;;;;;;73.97;22.02;;;;;;;6.86;91.60;99378.38;5091259;28;20043;-20
2022/01/09 02:08:26;;;;;;;76.43;25.23;;;;;;;7.06;90.09;99372.19;5072559;28;20032;-20
2022/01/09 02:10:52;;;;;;;75.13;25.25;;;;;;;6.92;91.15;99366.13;5090941;28;20039;-20
2022/01/09 02:13:19;;;;;;;67.25;20.30;;;;;;;6.71;92.00;99362.78;5072230;28;20031;-20
2022/01/09 02:15:46;;;;;;;63.40;18.90;;;;;;;6.42;93.07;99351.69;5072405;28;20032;-20
2022/01/09 02:18:13;;;;;;;72.65;20.88;;;;;;;6.49;94.01;99348.19;5072040;28;20571;-20
2022/01/09 02:20:39;;;;;;;79.13;22.00;;;;;;;6.57;93.07;99355.91;5090450;28;20039;-21
2022/01/09 02:23:06;;;;;;;78.35;24.58;;;;;;;6.78;92.30;99352.97;5090451;28;20060;-20
2022/01/09 02:25:31;;;;;;;73.60;20.70;;;;;;;6.72;92.07;99340.56;5072605;28;20035;-20
2022/01/09 02:27:57;;;;;;;73.88;21.73;;;;;;;6.67;91.74;99342.22;5072282;28;20027;-20
2022/01/09 02:30:23;;;;;;;75.07;22.92;;;;;;;6.77;91.64;99346.03;5072319;28;20085;-20
2022/01/09 02:32:48;;;;;;;71.80;21.55;;;;;;;6.76;91.76;99339.13;5090672;28;20036;-21
2022/01/09 02:35:14;;;;;;;67.30;21.48;;;;;;;6.73;92.04;99344.81;5071788;28;20062;-20
2022/01/09 02:37:39;;;;;;;79.40;23.42;;;;;;;6.60;91.79;99310.47;5090537;28;20032;-20
2022/01/09 02:40:06;;;;;;;69.68;21.95;;;;;;;6.73;92.22;99326.28;5071963;28;20086;-21
2022/01/09 02:42:32;;;;;;;75.65;23.67;;;;;;;6.73;92.40;99328.94;5071418;28;20039;-20
2022/01/09 02:44:58;;;;;;;70.10;24.20;;;;;;;6.62;92.70;99306.56;5089851;28;20560;-20
2022/01/09 02:47:25;;;;;;;89.20;26.10;;;;;;;6.88;91.01;99312.72;5090043;28;20862;-20
2022/01/09 02:49:53;;;;;;;77.28;26.67;;;;;;;6.98;90.32;99320.22;5071461;28;20031;-20
2022/01/09 02:52:35;;;;;;;77.22;24.60;;;;;;;7.05;90.52;99318.34;5089915;28;20074;-20
2022/01/09 02:55:11;;;;;;;77.18;25.75;;;;;;;7.04;90.46;99303.47;5089367;28;20068;-20
2022/01/09 02:57:40;;;;;;;78.05;26.50;;;;;;;7.15;89.92;99321.34;5090186;28;20028;-21
2022/01/09 03:00:10;;;;;;;79.63;25.25;;;;;;;7.01;90.25;99319.81;5089695;28;20593;-20
2022/01/09 03:02:36;;;;;;;80.15;26.27;;;;;;;6.97;90.88;99311.47;5071843;28;20024;-20
2022/01/09 03:05:02;;;;;;;79.18;28.60;;;;;;;7.12;89.60;99305.84;5089145;28;20062;-20
2022/01/09 03:07:27;;;;;;;78.47;27.75;;;;;;;7.30;88.54;99306.97;5089207;28;20028;-20
2022/01/09 03:09:52;;;;;;;83.53;29.48;;;;;;;7.22;88.71;99310.69;5089660;28;20036;-21
2022/01/09 03:12:18;;;;;;;83.78;27.60;;;;;;;7.18;88.76;99294.38;5089524;28;20043;-20
2022/01/09 03:14:44;;;;;;;83.22;27.75;;;;;;;6.89;90.32;99295.81;5089373;28;20028;-22
2022/01/09 03:17:10;;;;;;;84.35;26.55;;;;;;;7.28;88.37;99287.81;5070646;28;20036;-21
2022/01/09 03:19:35;;;;;;;87.50;27.38;;;;;;;7.18;89.21;99299.69;5089284;28;20058;-21
2022/01/09 03:22:00;;;;;;;89.30;27.00;;;;;;;7.30;88.26;99297.16;5088949;28;20085;-21
2022/01/09 03:24:26;;;;;;;86.10;27.88;;;;;;;7.33;88.71;99295.91;5089146;28;20024;-20
2022/01/09 03:26:51;;;;;;;73.22;25.65;;;;;;;7.22;88.24;99298.22;5089185;28;20035;-21
2022/01/09 03:29:17;;;;;;;78.45;26.05;;;;;;;7.05;88.93;99278.59;5088812;28;20032;-20
2022/01/09 03:31:42;;;;;;;73.18;25.38;;;;;;;7.37;87.89;99283.84;5088989;28;20028;-20
2022/01/09 03:34:08;;;;;;;72.55;25.05;;;;;;;7.74;86.23;99294.53;5088945;28;20039;-20
2022/01/09 03:36:33;;;;;;;71.03;26.17;;;;;;;7.62;85.77;99283.81;5089065;28;20484;-20
2022/01/09 03:38:59;;;;;;;72.40;24.90;;;;;;;7.84;85.14;99305.44;5088755;28;20102;-20
2022/01/09 03:41:24;;;;;;;74.55;26.83;;;;;;;7.81;85.45;99305.91;5088779;28;20039;-20
2022/01/09 03:43:50;;;;;;;82.47;26.52;;;;;;;7.75;85.47;99298.81;5088722;28;20476;-20
2022/01/09 03:46:15;;;;;;;71.13;24.95;;;;;;;7.78;85.34;99306.31;5089110;28;20384;-21
2022/01/09 03:48:40;;;;;;;71.68;24.27;;;;;;;7.90;84.87;99311.72;5088826;28;20091;-21
2022/01/09 03:51:06;;;;;;;71.55;24.58;;;;;;;7.87;84.46;99299.72;5088227;28;20032;-21
2022/01/09 03:53:32;;;;;;;73.10;26.85;;;;;;;7.92;84.36;99289.22;5088809;28;20584;-21
2022/01/09 03:55:57;;;;;;;77.00;26.33;;;;;;;7.70;85.15;99280.88;5088783;28;20028;-20
2022/01/09 03:58:23;;;;;;;72.07;26.45;;;;;;;7.63;85.79;99286.25;5088765;28;20031;-20
2022/01/09 04:00:48;;;;;;;66.65;25.92;;;;;;;7.63;86.04;99285.44;5088006;28;20054;-20
2022/01/09 04:03:14;;;;;;;67.30;26.45;;;;;;;7.71;85.98;99292.31;5088136;28;20028;-20
2022/01/09 04:05:39;;;;;;;74.03;26.40;;;;;;;7.80;85.61;99285.69;5088364;28;20482;-20
2022/01/09 04:08:05;;;;;;;74.97;27.15;;;;;;;7.73;85.46;99292.91;5088214;28;20039;-20
2022/01/09 04:10:32;;;;;;;74.43;25.10;;;;;;;7.89;84.54;99287.03;5088481;28;20111;-20
2022/01/09 04:12:59;;;;;;;75.15;25.70;;;;;;;7.83;85.21;99290.56;5088212;28;20028;-20
2022/01/09 04:15:26;;;;;;;81.45;25.35;;;;;;;7.61;85.50;99272.38;5088331;28;20035;-20
2022/01/09 04:17:53;;;;;;;75.78;27.05;;;;;;;7.45;86.29;99267.63;5088233;28;20043;-20
2022/01/09 04:20:19;;;;;;;76.32;28.50;;;;;;;7.27;86.83;99244.53;5087871;28;20044;-20
2022/01/09 04:22:45;;;;;;;81.53;27.55;;;;;;;7.14;87.54;99252.63;5070063;28;20031;-20
2022/01/09 04:25:11;;;;;;;87.07;27.90;;;;;;;7.18;87.58;99272.38;5069906;28;20514;-20
2022/01/09 04:27:37;;;;;;;91.72;29.95;;;;;;;7.08;88.25;99262.22;5069874;28;20042;-21
2022/01/09 04:30:04;;;;;;;88.30;28.38;;;;;;;7.20;88.59;99276.41;5088576;28;20108;-20
2022/01/09 04:32:29;;;;;;;83.00;28.35;;;;;;;7.43;87.66;99264.41;5069858;28;20468;-20
2022/01/09 04:34:55;;;;;;;86.95;28.45;;;;;;;7.62;86.90;99267.88;5088021;28;20066;-21
2022/01/09 04:37:20;;;;;;;85.68;27.10;;;;;;;7.63;86.13;99262.38;5070110;28;20028;-20
2022/01/09 04:39:48;;;;;;;98.10;30.40;;;;;;;7.65;85.93;99268.25;5069973;28;20165;-20
2022/01/09 04:42:13;;;;;;;80.78;29.73;;;;;;;7.65;85.73;99270.91;5087810;28;20032;-20
2022/01/09 04:44:39;;;;;;;92.40;30.98;;;;;;;7.73;85.88;99274.34;5087808;28;20027;-20
2022/01/09 04:47:09;;;;;;;86.70;29.33;;;;;;;7.65;85.59;99265.63;5087599;28;20086;-20
2022/01/09 04:49:40;;;;;;;81.70;26.73;;;;;;;7.70;85.36;99264.13;5069878;28;20036;-20
2022/01/09 04:52:09;;;;;;;90.40;30.27;;;;;;;7.69;85.92;99273.16;5087901;28;20054;-20
2022/01/09 04:54:34;;;;;;;84.82;28.48;;;;;;;7.43;87.16;99261.75;5087678;28;20039;-20
2022/01/09 04:57:02;;;;;;;78.35;27.58;;;;;;;7.75;85.99;99261.66;5087533;28;20036;-20
2022/01/09 04:59:28;;;;;;;87.00;31.47;;;;;;;7.66;85.82;99253.16;5087742;28;20024;-20
2022/01/09 05:01:53;;;;;;;82.35;29.73;;;;;;;7.74;85.29;99268.78;5087913;28;20064;-20
2022/01/09 05:04:19;;;;;;;84.10;29.52;;;;;;;7.82;85.31;99279.13;5087459;28;20032;-21
2022/01/09 05:06:44;;;;;;;84.10;29.35;;;;;;;7.82;85.14;99278.31;5088076;28;20039;-21
2022/01/09 05:09:10;;;;;;;85.07;29.83;;;;;;;7.67;86.32;99269.91;5087488;28;20039;-20
2022/01/09 05:11:39;;;;;;;81.47;29.70;;;;;;;7.75;85.48;99262.47;5087588;28;20028;-20
2022/01/09 05:14:04;;;;;;;76.00;28.02;;;;;;;7.49;85.97;99262.72;5090120;28;20035;-20
2022/01/09 05:16:30;;;;;;;91.97;30.00;;;;;;;7.33;87.22;99269.38;5091997;28;20031;-20
2022/01/09 05:19:03;;;;;;;98.60;36.72;;;;;;;7.43;86.84;99261.75;5091174;28;20063;-20
2022/01/09 05:21:28;;;;;;;93.22;35.85;;;;;;;7.15;86.96;99257.72;5091595;28;20115;-21
2022/01/09 05:23:54;;;;;;;94.60;34.83;;;;;;;7.24;87.40;99261.69;5091265;28;20114;-20
2022/01/09 05:26:19;;;;;;;154.45;54.50;;;;;;;7.53;86.20;99267.38;5091978;28;20039;-20
2022/01/09 05:28:45;;;;;;;147.23;55.45;;;;;;;7.57;85.85;99265.91;5091205;28;20036;-20
2022/01/09 05:31:10;;;;;;;103.40;37.75;;;;;;;7.57;85.76;99271.19;5091140;28;20036;-20
2022/01/09 05:33:36;;;;;;;88.45;37.08;;;;;;;7.49;86.30;99252.09;5091272;28;20093;-20
2022/01/09 05:36:01;;;;;;;78.13;31.95;;;;;;;7.45;85.72;99247.22;5091332;28;20047;-20
2022/01/09 05:38:26;;;;;;;72.68;28.98;;;;;;;7.62;85.28;99268.72;5091282;28;20024;-20
2022/01/09 05:40:52;;;;;;;82.75;30.77;;;;;;;7.67;85.23;99260.09;5091148;28;20035;-20
2022/01/09 05:43:19;;;;;;;77.07;28.05;;;;;;;7.88;84.09;99258.84;5090748;28;20095;-20
2022/01/09 05:45:44;;;;;;;79.10;29.02;;;;;;;7.89;83.85;99263.13;5072558;28;20475;-21
2022/01/09 05:48:09;;;;;;;81.75;28.65;;;;;;;7.55;85.18;99259.19;5091032;28;20039;-20
2022/01/09 05:50:35;;;;;;;73.22;27.83;;;;;;;7.60;85.13;99265.47;5091005;28;20032;-20
2022/01/09 05:53:00;;;;;;;85.15;29.13;;;;;;;7.41;86.46;99266.47;5090897;28;20024;-20
2022/01/09 05:55:26;;;;;;;70.53;26.77;;;;;;;7.27;86.99;99255.13;5072623;28;20035;-21
2022/01/09 05:57:52;;;;;;;78.70;26.98;;;;;;;7.58;86.68;99277.31;5091158;28;20115;-21
2022/01/09 06:00:17;;;;;;;78.18;29.23;;;;;;;7.56;86.37;99269.59;5073072;28;20028;-20
2022/01/09 06:02:43;;;;;;;82.63;32.25;;;;;;;7.63;85.46;99266.88;5090963;28;20518;-20
2022/01/09 06:05:08;;;;;;;96.63;36.22;;;;;;;7.74;84.96;99265.31;5090733;28;20035;-22
2022/01/09 06:07:37;;;;;;;99.75;37.67;;;;;;;7.77;84.94;99278.16;5090787;28;20028;-21
2022/01/09 06:10:03;;;;;;;90.68;33.78;;;;;;;7.73;84.63;99287.59;5072843;28;20063;-20
2022/01/09 06:12:28;;;;;;;74.22;28.67;;;;;;;7.66;84.80;99285.00;5091011;28;20036;-21
2022/01/09 06:14:54;;;;;;;69.05;29.30;;;;;;;7.60;85.63;99288.53;5090807;28;20066;-21
2022/01/09 06:17:20;;;;;;;77.65;30.70;;;;;;;7.80;84.27;99291.78;5090038;28;20047;-20
2022/01/09 06:19:45;;;;;;;76.55;31.15;;;;;;;7.42;85.99;99299.94;5090598;28;20047;-20
2022/01/09 06:22:17;;;;;;;68.15;30.33;;;;;;;7.21;86.86;99293.97;5090575;28;20057;-20
2022/01/09 06:24:43;;;;;;;66.63;28.92;;;;;;;7.42;86.77;99294.63;5090088;28;20500;-20
2022/01/09 06:27:08;;;;;;;69.50;28.00;;;;;;;7.30;87.19;99291.06;5090226;28;20032;-20
2022/01/09 06:29:34;;;;;;;65.38;28.95;;;;;;;7.12;88.07;99271.38;5091015;28;20503;-22
2022/01/09 06:31:59;;;;;;;66.45;29.35;;;;;;;7.24;86.92;99277.59;5090506;28;20423;-20
2022/01/09 06:34:25;;;;;;;65.38;26.95;;;;;;;7.31;86.67;99280.19;5090386;28;20032;-21
2022/01/09 06:36:50;;;;;;;66.53;29.73;;;;;;;7.61;85.67;99267.09;5090175;28;20032;-20
2022/01/09 06:39:16;;;;;;;74.72;32.95;;;;;;;7.47;86.32;99270.88;5090327;28;20086;-20
2022/01/09 06:41:42;;;;;;;77.97;31.90;;;;;;;7.77;85.11;99280.81;5090003;28;20039;-20
2022/01/09 06:44:07;;;;;;;71.15;29.85;;;;;;;7.79;84.85;99281.41;5089843;28;20036;-20
2022/01/09 06:46:32;;;;;;;69.82;29.48;;;;;;;7.88;84.82;99281.94;5090116;28;20028;-20
2022/01/09 06:48:58;;;;;;;63.80;29.45;;;;;;;7.89;84.73;99280.91;5089826;28;20028;-21
2022/01/09 06:51:23;;;;;;;65.38;27.63;;;;;;;7.57;85.49;99276.50;5090009;28;20032;-20
2022/01/09 06:53:49;;;;;;;71.80;28.05;;;;;;;7.43;85.58;99269.69;5089756;28;20462;-21
2022/01/09 06:56:14;;;;;;;77.05;31.55;;;;;;;7.38;86.29;99282.81;5089786;28;20055;-20
2022/01/09 06:58:40;;;;;;;84.57;34.67;;;;;;;7.57;85.84;99271.19;5089546;28;20047;-21
2022/01/09 07:01:05;;;;;;;78.57;33.10;;;;;;;7.54;85.38;99269.00;5089536;28;20035;-21
2022/01/09 07:03:31;;;;;;;87.32;38.75;;;;;;;7.70;84.85;99254.34;5089466;28;20081;-21
2022/01/09 07:05:56;;;;;;;91.30;40.80;;;;;;;7.49;86.55;99260.88;5089752;28;20081;-20
2022/01/09 07:08:22;;;;;;;76.13;35.65;;;;;;;7.36;87.17;99258.34;5089587;28;20039;-20
2022/01/09 07:10:47;;;;;;;76.97;33.00;;;;;;;7.62;85.75;99258.09;5071314;28;20431;-20
2022/01/09 07:13:13;;;;;;;78.10;32.63;;;;;;;7.29;87.04;99246.97;5089295;28;20059;-20
2022/01/09 07:15:38;;;;;;;65.40;27.33;;;;;;;7.54;85.49;99258.38;5089377;28;20024;-20
2022/01/09 07:18:04;;;;;;;71.85;31.35;;;;;;;7.39;85.57;99252.59;5088917;28;20488;-20
2022/01/09 07:20:29;;;;;;;71.82;30.67;;;;;;;7.27;86.96;99241.06;5089249;28;20028;-20
2022/01/09 07:22:55;;;;;;;70.85;29.50;;;;;;;7.47;86.13;99244.34;5089334;28;20503;-21
2022/01/09 07:25:20;;;;;;;62.58;27.33;;;;;;;7.26;85.53;99189.88;5071124;28;20032;-21
2022/01/09 07:27:46;;;;;;;67.78;29.70;;;;;;;7.47;85.84;99252.31;5089418;28;20398;-21
2022/01/09 07:30:11;;;;;;;67.55;31.15;;;;;;;7.30;87.41;99243.31;5089146;28;20028;-20
2022/01/09 07:32:37;;;;;;;61.25;27.10;;;;;;;7.14;87.06;99248.13;5089601;28;20380;-21
2022/01/09 07:35:04;;;;;;;61.65;26.67;;;;;;;7.05;87.97;99236.16;5088569;28;20028;-20
2022/01/09 07:37:30;;;;;;;56.67;23.92;;;;;;;6.98;87.58;99235.41;5088199;28;20028;-20
2022/01/09 07:39:57;;;;;;;65.82;26.65;;;;;;;6.92;88.11;99213.19;5088938;28;20042;-20
2022/01/09 07:42:23;;;;;;;64.05;26.67;;;;;;;7.06;88.13;99227.16;5070419;28;20472;-20
2022/01/09 07:44:48;;;;;;;64.70;26.95;;;;;;;7.30;88.64;99216.78;5088858;28;20028;-20
2022/01/09 07:47:14;;;;;;;55.95;24.90;;;;;;;7.23;87.01;99208.88;5088490;28;20403;-20
2022/01/09 07:49:39;;;;;;;56.63;25.50;;;;;;;7.21;87.46;99209.09;5088490;28;20602;-20
2022/01/09 07:52:04;;;;;;;78.43;34.42;;;;;;;7.47;86.02;99201.91;5088534;28;20446;-21
2022/01/09 07:54:30;;;;;;;214.52;95.15;;;;;;;7.71;85.02;99186.16;5088710;28;20027;-20
2022/01/09 07:56:55;;;;;;;186.82;88.95;;;;;;;7.88;84.80;99176.56;5088566;28;20090;-20
2022/01/09 07:59:21;;;;;;;71.63;34.33;;;;;;;8.23;83.38;99181.22;5088370;28;20081;-21
2022/01/09 08:01:46;;;;;;;102.85;44.63;;;;;;;8.22;83.68;99204.31;5088475;28;20035;-21
2022/01/09 08:04:12;;;;;;;60.88;28.15;;;;;;;8.44;82.48;99204.66;5088261;28;20077;-20
2022/01/09 08:06:39;;;;;;;48.60;25.08;;;;;;;8.32;82.48;99210.94;5088337;28;20031;-20
2022/01/09 08:09:04;;;;;;;94.88;43.75;;;;;;;8.38;82.08;99216.16;5088043;28;20103;-20
2022/01/09 08:11:30;;;;;;;54.25;24.35;;;;;;;8.52;81.20;99222.16;5088629;28;20461;-20
2022/01/09 08:13:55;;;;;;;55.45;25.63;;;;;;;8.31;81.91;99215.44;5088078;28;20040;-20
2022/01/09 08:16:21;;;;;;;49.22;21.88;;;;;;;8.13;83.10;99210.16;5088158;28;20118;-20
2022/01/09 08:18:46;;;;;;;51.28;26.83;;;;;;;8.23;82.71;99216.56;5088010;28;20063;-20
2022/01/09 08:21:12;;;;;;;49.20;21.63;;;;;;;8.23;82.88;99211.25;5087859;28;20062;-20
2022/01/09 08:23:37;;;;;;;43.03;21.45;;;;;;;7.95;84.27;99197.72;5088137;28;20043;-21
2022/01/09 08:26:04;;;;;;;51.13;22.92;;;;;;;7.93;84.69;99213.88;5070211;28;20055;-20
2022/01/09 08:28:29;;;;;;;48.58;23.52;;;;;;;8.20;83.75;99210.91;5088071;28;20107;-21
2022/01/09 08:30:55;;;;;;;54.55;23.55;;;;;;;7.94;84.16;99212.81;5088000;28;20042;-21
2022/01/09 08:33:24;;;;;;;51.35;23.17;;;;;;;8.25;82.83;99213.69;5087781;28;20020;-21
2022/01/09 08:35:50;;;;;;;50.78;23.58;;;;;;;8.04;84.33;99207.81;5088135;28;20036;-20
2022/01/09 08:38:15;;;;;;;52.33;22.83;;;;;;;7.93;84.21;99197.94;5087699;28;20035;-21
2022/01/09 08:40:40;;;;;;;52.42;23.60;;;;;;;7.88;84.81;99197.00;5088281;28;20047;-20
2022/01/09 08:43:06;;;;;;;47.20;22.65;;;;;;;7.71;85.02;99180.84;5087613;28;20028;-20
2022/01/09 08:45:31;;;;;;;55.10;23.90;;;;;;;7.87;85.43;99201.50;5087944;28;20438;-21
2022/01/09 08:47:57;;;;;;;59.05;25.10;;;;;;;8.04;85.06;99201.69;5087786;28;20032;-22
2022/01/09 08:50:23;;;;;;;52.50;24.20;;;;;;;7.99;84.66;99183.78;5087841;28;20069;-21
2022/01/09 08:52:48;;;;;;;64.53;30.17;;;;;;;7.54;87.01;99162.88;5087846;28;20032;-20
2022/01/09 08:55:14;;;;;;;54.33;24.73;;;;;;;7.53;88.03;99179.00;5087581;28;20043;-20
2022/01/09 08:57:39;;;;;;;251.20;121.63;;;;;;;7.85;85.17;99195.59;5087517;28;20028;-20
2022/01/09 09:00:05;;;;;;;184.73;90.63;;;;;;;7.89;85.79;99188.81;5087738;28;20474;-20
2022/01/09 09:02:31;;;;;;;69.60;34.40;;;;;;;8.12;84.17;99185.44;5087525;28;20086;-20
2022/01/09 09:04:56;;;;;;;141.40;74.32;;;;;;;8.27;83.67;99189.56;5087049;28;20400;-21
2022/01/09 09:07:24;;;;;;;48.90;26.77;;;;;;;8.34;82.65;99177.00;5087840;28;20524;-20
2022/01/09 09:09:52;;;;;;;36.63;19.00;;;;;;;8.52;80.89;99190.25;5087543;28;20480;-21
2022/01/09 09:12:18;;;;;;;34.10;16.60;;;;;;;8.37;80.43;99177.34;5087739;28;20640;-21
2022/01/09 09:14:46;;;;;;;33.17;17.65;;;;;;;8.65;79.89;99190.03;5087401;28;20032;-20
2022/01/09 09:17:12;;;;;;;40.20;20.58;;;;;;;8.53;81.03;99175.91;5087135;28;20036;-20
2022/01/09 09:19:37;;;;;;;33.28;17.42;;;;;;;8.85;79.78;99180.97;5087403;28;20171;-20
2022/01/09 09:22:03;;;;;;;226.10;126.07;;;;;;;8.94;80.23;99170.78;5087557;28;20040;-20
2022/01/09 09:24:28;;;;;;;60.13;29.73;;;;;;;9.14;79.99;99167.81;5087575;28;20024;-21
2022/01/09 09:26:54;;;;;;;46.67;27.60;;;;;;;9.28;78.93;99158.56;5087448;28;20032;-21
2022/01/09 09:29:20;;;;;;;28.80;15.25;;;;;;;9.49;79.24;99169.63;5087482;28;20036;-21
2022/01/09 09:31:46;;;;;;;31.33;15.68;;;;;;;9.13;79.81;99153.69;5087581;28;20155;-20
2022/01/09 09:34:11;;;;;;;31.23;16.25;;;;;;;9.42;79.91;99153.81;5087486;28;20020;-20
2022/01/09 09:36:37;;;;;;;81.15;69.55;;;;;;;9.25;80.21;99153.69;5087356;28;20101;-20
2022/01/09 09:39:07;;;;;;;51.05;32.33;;;;;;;9.18;81.77;99147.69;5086932;28;20039;-20
2022/01/09 09:41:33;;;;;;;34.65;17.00;;;;;;;8.75;82.57;99139.00;5087458;28;20537;-20
2022/01/09 09:43:58;;;;;;;33.40;16.88;;;;;;;8.76;82.16;99126.50;5068759;28;20028;-21
2022/01/09 09:46:24;;;;;;;33.55;17.67;;;;;;;9.08;81.53;99132.28;5069090;28;20028;-21
2022/01/09 09:48:51;;;;;;;50.58;31.58;;;;;;;8.89;81.05;99134.28;5087225;28;20480;-20
2022/01/09 09:51:16;;;;;;;27.77;14.13;;;;;;;9.17;79.30;99114.94;5086847;28;20518;-20
2022/01/09 09:53:42;;;;;;;28.88;15.63;;;;;;;8.96;79.92;99112.88;5087013;28;20028;-20
2022/01/09 09:56:07;;;;;;;28.90;16.52;;;;;;;8.59;80.69;99097.13;5087033;28;20032;-20
2022/01/09 09:58:33;;;;;;;27.75;15.38;;;;;;;8.85;81.31;99102.00;5086945;28;20036;-20
2022/01/09 10:00:58;;;;;;;29.45;13.15;;;;;;;9.03;80.03;99102.91;5090503;28;20032;-20
2022/01/09 10:03:28;;;;;;;24.35;12.00;;;;;;;9.03;80.50;99121.53;5087383;28;20032;-20
2022/01/09 10:05:54;;;;;;;27.60;13.75;;;;;;;9.16;80.68;99107.19;5070337;28;20037;-21
2022/01/09 10:08:19;;;;;;;24.70;12.82;;;;;;;8.96;79.28;99108.34;5073590;28;20031;-21
2022/01/09 10:10:45;;;;;;;35.75;18.33;;;;;;;9.02;79.86;99102.13;5075193;28;20024;-20
2022/01/09 10:13:15;;;;;;;29.60;14.30;;;;;;;9.15;80.52;99111.69;5079469;28;20032;-20
2022/01/09 10:15:49;;;;;;;26.92;13.52;;;;;;;8.88;80.07;99105.25;5072596;28;20036;-20
2022/01/09 10:18:41;;;;;;;30.27;15.52;;;;;;;8.78;81.14;99090.66;5079085;28;20040;-21
2022/01/09 10:21:10;;;;;;;28.58;14.10;;;;;;;8.62;80.97;99086.03;5070102;28;20036;-20
2022/01/09 10:23:58;;;;;;;26.17;12.85;;;;;;;8.57;82.82;99104.53;5069559;28;20037;-22
2022/01/09 10:26:24;;;;;;;40.70;24.10;;;;;;;8.53;83.65;99090.88;5070223;28;20059;-22
2022/01/09 10:28:49;;;;;;;55.92;33.97;;;;;;;8.72;82.27;99096.91;5070133;28;20833;-20
2022/01/09 10:31:18;;;;;;;38.05;18.98;;;;;;;8.36;83.10;99071.31;5069703;28;20121;-21
2022/01/09 10:33:56;;;;;;;40.13;21.33;;;;;;;8.03;85.72;99113.25;5070189;28;20039;-21
2022/01/09 10:36:44;;;;;;;39.07;19.87;;;;;;;8.23;85.57;99102.38;5069762;28;20099;-21
2022/01/09 10:39:14;;;;;;;38.30;19.15;;;;;;;8.07;85.88;99097.69;5069864;28;20039;-20
2022/01/09 10:41:58;;;;;;;44.55;22.98;;;;;;;8.08;86.29;99101.16;5074717;28;20032;-20
2022/01/09 10:44:30;;;;;;;30.63;16.55;;;;;;;7.90;86.80;99089.53;5077507;28;20032;-20
2022/01/09 10:47:06;;;;;;;31.60;16.02;;;;;;;7.71;87.45;99072.06;5076605;28;20020;-21
2022/01/09 10:49:44;;;;;;;35.33;17.80;;;;;;;8.10;87.29;99077.84;5077465;28;20404;-21
2022/01/09 10:52:21;;;;;;;34.17;14.63;;;;;;;8.29;85.67;99082.03;5076971;28;20024;-21
2022/01/09 10:54:48;;;;;;;40.50;18.38;;;;;;;8.45;84.93;99075.28;5077128;28;20028;-20
2022/01/09 10:57:14;;;;;;;30.52;14.65;;;;;;;8.23;83.38;99029.81;5075514;28;20051;-21
2022/01/09 10:59:40;;;;;;;34.40;16.38;;;;;;;8.59;84.35;99038.66;5106200;28;20126;-21
2022/01/09 11:02:06;;;;;;;33.92;14.40;;;;;;;8.59;83.91;99044.00;5102578;28;20115;-23
2022/01/09 11:04:31;;;;;;;29.65;13.35;;;;;;;8.57;83.12;99041.56;5089611;28;20061;-21
2022/01/09 11:06:57;;;;;;;28.52;13.48;;;;;;;8.36;84.81;99018.19;5084265;28;20385;-21
2022/01/09 11:09:25;;;;;;;25.88;12.20;;;;;;;8.33;84.08;99019.44;5079249;28;20037;-20
2022/01/09 11:11:50;;;;;;;30.15;13.70;;;;;;;8.51;83.72;99031.03;5059709;28;20139;-21
2022/01/09 11:14:18;;;;;;;40.35;18.23;;;;;;;8.69;83.15;99012.31;5061122;28;20054;-20
2022/01/09 11:16:51;;;;;;;34.85;17.40;;;;;;;8.72;82.63;99022.47;5059703;28;20507;-20
2022/01/09 11:19:18;;;;;;;48.65;31.10;;;;;;;8.41;83.60;99018.31;5076835;28;20121;-21
2022/01/09 11:21:48;;;;;;;31.00;16.33;;;;;;;8.32;84.27;99023.16;5077190;28;20032;-21